Time;durP1;ratioP1;P1;durP2;ratioP2;P2;SDS_P1;SDS_P2;PMS_P1;PMS_P2;Temp;Humidity;BMP_temperature;BMP_pressure;BME280_temperature;BME280_humidity;BME280_pressure;Samples;Min_cycle;Max_cycle;Signal;HPM_P1;HPM_P2
2021/10/11 00:00:08;;;;;;;7.13;2.40;;;19.00;64.60;;;;;;5031367;28;20056;-71
2021/10/11 00:02:34;;;;;;;7.93;3.20;;;18.90;64.70;;;;;;5037720;28;20045;-70
2021/10/11 00:05:01;;;;;;;5.40;2.78;;;18.90;64.70;;;;;;5035526;28;20024;-74
2021/10/11 00:07:27;;;;;;;11.48;3.47;;;18.90;64.80;;;;;;5033312;28;20037;-71
2021/10/11 00:09:54;;;;;;;7.18;2.95;;;18.90;64.90;;;;;;5037460;28;20025;-70
2021/10/11 00:12:24;;;;;;;9.20;2.78;;;18.90;64.70;;;;;;5033914;28;20022;-71
2021/10/11 00:14:51;;;;;;;7.25;2.20;;;18.90;64.60;;;;;;5034241;28;20105;-71
2021/10/11 00:17:18;;;;;;;6.68;3.05;;;18.80;64.40;;;;;;5039080;28;20037;-70
2021/10/11 00:19:46;;;;;;;7.03;2.30;;;18.80;64.10;;;;;;5039743;28;20029;-72
2021/10/11 00:22:12;;;;;;;6.18;2.20;;;18.80;64.30;;;;;;5032222;28;20025;-71
2021/10/11 00:24:38;;;;;;;6.82;2.28;;;18.80;64.00;;;;;;5032979;28;20029;-71
2021/10/11 00:27:05;;;;;;;8.82;2.88;;;18.80;64.30;;;;;;5032156;28;20067;-72
2021/10/11 00:29:31;;;;;;;4.05;1.73;;;18.80;64.80;;;;;;5038566;28;20013;-76
2021/10/11 00:31:58;;;;;;;5.40;2.40;;;18.70;64.80;;;;;;5035717;28;20045;-72
2021/10/11 00:34:24;;;;;;;6.78;3.78;;;18.70;64.60;;;;;;5031427;28;20660;-72
2021/10/11 00:36:51;;;;;;;6.93;2.88;;;18.70;64.40;;;;;;5035568;28;20489;-73
2021/10/11 00:39:17;;;;;;;6.95;2.85;;;18.70;64.80;;;;;;5039629;28;20707;-72
2021/10/11 00:41:44;;;;;;;8.45;2.88;;;18.70;64.40;;;;;;5035384;28;20472;-70
2021/10/11 00:44:10;;;;;;;4.72;2.42;;;18.60;64.90;;;;;;5038719;28;20521;-72
2021/10/11 00:46:36;;;;;;;9.27;3.50;;;18.60;65.00;;;;;;5032623;28;20101;-71
2021/10/11 00:49:03;;;;;;;7.55;3.10;;;18.60;65.20;;;;;;5032789;28;20096;-71
2021/10/11 00:51:30;;;;;;;8.57;3.67;;;18.60;65.30;;;;;;5030487;28;20026;-70
2021/10/11 00:53:57;;;;;;;5.45;3.38;;;18.50;65.30;;;;;;5037953;28;20021;-71
2021/10/11 00:56:24;;;;;;;9.55;4.50;;;18.60;65.50;;;;;;5028619;28;20045;-71
2021/10/11 00:58:50;;;;;;;9.73;3.90;;;18.50;65.70;;;;;;5032033;28;20040;-72
2021/10/11 01:01:18;;;;;;;9.35;3.72;;;18.50;65.80;;;;;;5035005;28;20032;-71
2021/10/11 01:03:44;;;;;;;9.93;3.95;;;18.40;65.50;;;;;;5033158;28;20411;-71
2021/10/11 01:06:11;;;;;;;8.43;3.95;;;18.40;65.40;;;;;;5033697;28;21136;-71
2021/10/11 01:08:38;;;;;;;10.85;3.53;;;18.40;65.70;;;;;;5041858;28;20704;-70
2021/10/11 01:11:04;;;;;;;9.73;4.13;;;18.30;65.80;;;;;;5033625;28;20026;-70
2021/10/11 01:13:31;;;;;;;10.00;3.50;;;18.30;65.80;;;;;;5032744;28;20157;-70
2021/10/11 01:15:57;;;;;;;9.52;4.00;;;18.20;65.80;;;;;;5047798;28;20099;-71
2021/10/11 01:18:24;;;;;;;9.07;3.20;;;18.20;65.80;;;;;;5030125;28;20037;-70
2021/10/11 01:20:50;;;;;;;5.53;3.15;;;18.20;66.10;;;;;;5038450;28;20101;-73
2021/10/11 01:23:17;;;;;;;7.50;3.63;;;18.20;65.70;;;;;;5031822;28;20025;-75
2021/10/11 01:25:43;;;;;;;16.30;4.13;;;18.10;65.70;;;;;;5039120;28;20012;-70
2021/10/11 01:28:10;;;;;;;7.47;3.15;;;18.10;65.70;;;;;;5033731;28;20062;-71
2021/10/11 01:30:36;;;;;;;7.28;3.13;;;18.10;65.90;;;;;;5035010;28;20013;-71
2021/10/11 01:33:03;;;;;;;11.77;3.63;;;18.10;65.70;;;;;;5030697;28;20123;-71
2021/10/11 01:35:30;;;;;;;7.18;3.13;;;18.10;65.80;;;;;;5031947;28;20100;-71
2021/10/11 01:37:56;;;;;;;10.38;3.53;;;18.00;65.30;;;;;;5034118;28;20020;-72
2021/10/11 01:40:23;;;;;;;8.77;3.55;;;18.00;65.10;;;;;;5035780;28;20064;-72
2021/10/11 01:42:49;;;;;;;8.75;3.42;;;18.00;65.30;;;;;;5031536;28;20024;-72
2021/10/11 01:45:16;;;;;;;6.60;4.00;;;17.90;65.20;;;;;;5031872;28;20030;-71
2021/10/11 01:47:42;;;;;;;8.07;3.30;;;17.90;64.90;;;;;;5031235;28;20037;-71
2021/10/11 01:50:09;;;;;;;7.68;3.25;;;17.80;65.00;;;;;;5030331;28;20436;-71
2021/10/11 01:52:36;;;;;;;9.23;3.90;;;17.80;64.80;;;;;;5030595;28;20013;-72
2021/10/11 01:55:05;;;;;;;8.18;3.17;;;17.80;65.00;;;;;;5030494;28;20044;-72
2021/10/11 01:57:31;;;;;;;11.35;3.42;;;17.70;64.80;;;;;;5031254;28;20113;-71
2021/10/11 01:59:58;;;;;;;6.47;3.72;;;17.70;64.80;;;;;;5031281;28;20091;-72
2021/10/11 02:02:27;;;;;;;8.55;3.50;;;17.70;64.70;;;;;;5045705;28;20096;-72
2021/10/11 02:04:54;;;;;;;7.70;3.47;;;17.70;64.80;;;;;;5027591;28;20018;-72
2021/10/11 02:07:20;;;;;;;6.60;3.50;;;17.70;65.00;;;;;;5046882;28;20025;-72
2021/10/11 02:09:48;;;;;;;8.18;2.95;;;17.60;65.10;;;;;;5035305;28;20408;-70
2021/10/11 02:12:15;;;;;;;10.30;4.40;;;17.60;64.90;;;;;;5036923;28;20055;-72
2021/10/11 02:14:41;;;;;;;8.45;3.67;;;17.60;64.90;;;;;;5032704;28;20014;-70
2021/10/11 02:17:08;;;;;;;8.75;3.90;;;17.60;65.00;;;;;;5030619;28;20025;-69
2021/10/11 02:19:34;;;;;;;9.18;3.42;;;17.60;65.00;;;;;;5035853;28;20013;-69
2021/10/11 02:22:01;;;;;;;8.20;3.65;;;17.50;65.10;;;;;;5029535;28;20041;-69
2021/10/11 02:24:27;;;;;;;7.75;3.92;;;17.50;65.10;;;;;;5030293;28;20057;-69
2021/10/11 02:26:54;;;;;;;10.68;3.53;;;17.50;65.30;;;;;;5030030;28;20025;-70
2021/10/11 02:29:20;;;;;;;10.95;3.75;;;17.40;65.60;;;;;;5032771;28;20033;-70
2021/10/11 02:31:47;;;;;;;7.57;3.00;;;17.40;65.90;;;;;;5031886;28;20028;-68
2021/10/11 02:34:13;;;;;;;7.90;3.03;;;17.40;66.10;;;;;;5030752;28;20480;-69
2021/10/11 02:36:40;;;;;;;5.22;2.00;;;17.30;66.30;;;;;;5033009;28;20048;-69
2021/10/11 02:39:06;;;;;;;7.68;2.60;;;17.30;66.40;;;;;;5036209;28;20017;-69
2021/10/11 02:41:33;;;;;;;6.50;2.63;;;17.30;66.60;;;;;;5033809;28;20022;-70
2021/10/11 02:43:59;;;;;;;3.15;1.80;;;17.30;66.30;;;;;;5033719;28;20036;-70
2021/10/11 02:46:26;;;;;;;5.05;1.80;;;17.30;66.40;;;;;;5031866;28;20025;-73
2021/10/11 02:48:52;;;;;;;3.40;2.10;;;17.30;66.30;;;;;;5030389;28;20132;-70
2021/10/11 02:51:19;;;;;;;5.68;2.55;;;17.30;66.30;;;;;;5032450;28;20480;-70
2021/10/11 02:53:54;;;;;;;8.70;2.47;;;17.30;66.30;;;;;;5029113;28;20353;-70
2021/10/11 02:56:21;;;;;;;5.60;2.55;;;17.30;66.40;;;;;;5033506;28;20029;-70
2021/10/11 02:58:47;;;;;;;7.82;2.30;;;17.20;66.10;;;;;;5037695;28;20358;-71
2021/10/11 03:01:15;;;;;;;14.05;3.58;;;17.20;66.10;;;;;;5030064;28;20014;-70
2021/10/11 03:03:41;;;;;;;8.48;2.20;;;17.20;65.90;;;;;;5031944;28;20028;-74
2021/10/11 03:06:08;;;;;;;5.43;1.92;;;17.20;65.80;;;;;;5035209;28;20033;-70
2021/10/11 03:08:35;;;;;;;5.22;2.22;;;17.20;65.90;;;;;;5034346;28;20484;-70
2021/10/11 03:11:03;;;;;;;4.68;3.10;;;17.20;65.80;;;;;;5030819;28;20105;-70
2021/10/11 03:13:29;;;;;;;3.45;1.52;;;17.10;65.80;;;;;;5031456;28;20017;-69
2021/10/11 03:15:56;;;;;;;44.33;34.67;;;17.10;65.80;;;;;;5031446;28;20014;-69
2021/10/11 03:18:23;;;;;;;48.97;36.38;;;17.10;66.10;;;;;;5035190;28;20104;-69
2021/10/11 03:20:50;;;;;;;24.98;18.00;;;17.10;66.30;;;;;;5031409;28;20028;-72
2021/10/11 03:23:17;;;;;;;13.57;7.60;;;17.10;66.20;;;;;;5030742;28;20112;-73
2021/10/11 03:25:43;;;;;;;11.27;5.05;;;17.10;66.30;;;;;;5037381;28;20017;-69
2021/10/11 03:28:10;;;;;;;4.70;3.25;;;17.00;66.50;;;;;;5036284;28;20131;-71
2021/10/11 03:30:37;;;;;;;11.40;2.50;;;17.00;66.40;;;;;;5035804;28;20020;-71
2021/10/11 03:33:03;;;;;;;4.07;2.05;;;17.00;66.20;;;;;;5033304;28;20005;-71
2021/10/11 03:35:30;;;;;;;4.95;2.50;;;17.00;66.60;;;;;;5034304;28;20096;-70
2021/10/11 03:37:56;;;;;;;6.03;2.03;;;17.00;66.30;;;;;;5035704;28;20057;-71
2021/10/11 03:40:23;;;;;;;6.72;2.30;;;17.00;66.50;;;;;;5032238;28;20021;-70
2021/10/11 03:42:49;;;;;;;5.32;2.10;;;16.90;66.90;;;;;;5036776;28;20033;-74
2021/10/11 03:45:15;;;;;;;6.00;2.00;;;16.90;67.40;;;;;;5032769;28;20037;-68
2021/10/11 03:47:42;;;;;;;7.43;2.33;;;16.90;67.60;;;;;;5034742;28;20047;-76
2021/10/11 03:50:09;;;;;;;6.63;2.05;;;16.80;67.60;;;;;;5032776;28;20019;-70
2021/10/11 03:52:36;;;;;;;4.60;2.13;;;16.90;67.60;;;;;;5033931;28;20559;-66
2021/10/11 03:55:03;;;;;;;7.78;2.22;;;16.80;67.70;;;;;;5032607;28;20028;-68
2021/10/11 03:57:29;;;;;;;11.63;5.50;;;16.80;67.80;;;;;;5031805;28;20506;-74
2021/10/11 03:59:56;;;;;;;15.32;8.02;;;16.80;68.00;;;;;;5050607;28;20538;-69
2021/10/11 04:02:22;;;;;;;8.20;4.60;;;16.80;68.20;;;;;;5033014;28;20018;-77
2021/10/11 14:33:01;;;;;;;8.77;3.00;;;29.00;39.20;;;;;;6331486;22;20003;-71
2021/10/11 15:58:39;;;;;;;6.97;2.30;;;26.20;45.50;;;;;;6336348;22;20010;-71
2021/10/11 16:01:30;;;;;;;11.20;2.60;;;26.20;45.50;;;;;;6335630;22;20048;-71
2021/10/11 16:03:56;;;;;;;6.32;2.45;;;26.10;45.70;;;;;;6334463;22;20421;-71
2021/10/11 16:06:28;;;;;;;5.60;2.28;;;26.00;46.10;;;;;;6335678;22;20002;-70
2021/10/11 16:08:56;;;;;;;9.10;2.90;;;25.90;46.50;;;;;;6306569;22;20038;-70
2021/10/11 16:11:22;;;;;;;8.88;3.20;;;25.90;46.90;;;;;;6335710;22;20002;-70
2021/10/11 16:13:49;;;;;;;4.70;2.30;;;25.80;47.30;;;;;;6335663;22;20421;-70
2021/10/11 16:16:16;;;;;;;8.93;3.75;;;25.80;47.50;;;;;;6335235;22;20462;-69
2021/10/11 16:18:42;;;;;;;12.00;9.43;;;25.70;47.70;;;;;;6307783;22;20009;-71
2021/10/11 16:21:11;;;;;;;11.55;4.65;;;25.60;48.90;;;;;;6334382;22;20441;-70
2021/10/11 16:23:39;;;;;;;12.73;3.55;;;25.60;48.50;;;;;;6336225;22;20006;-69
2021/10/11 16:26:08;;;;;;;13.13;4.70;;;25.50;48.90;;;;;;6333862;22;20009;-70
2021/10/11 16:28:37;;;;;;;10.05;4.28;;;25.50;49.40;;;;;;6335630;22;20010;-70
2021/10/11 16:31:07;;;;;;;9.00;2.88;;;25.50;50.20;;;;;;6334006;22;20069;-69
2021/10/11 16:33:34;;;;;;;8.90;3.83;;;25.40;50.90;;;;;;6331720;22;20694;-75
2021/10/11 16:36:02;;;;;;;16.05;9.43;;;25.30;51.50;;;;;;6330814;22;20002;-72
2021/10/11 16:38:29;;;;;;;21.65;12.70;;;25.30;51.90;;;;;;6332465;22;20010;-73
2021/10/11 16:40:55;;;;;;;17.30;4.65;;;25.20;52.20;;;;;;6333208;22;19999;-72
2021/10/11 16:43:31;;;;;;;9.05;3.25;;;25.10;52.50;;;;;;6304152;22;20003;-73
2021/10/11 16:45:57;;;;;;;10.55;3.97;;;25.10;52.70;;;;;;6333211;22;20066;-71
2021/10/11 16:48:24;;;;;;;11.98;4.55;;;25.10;52.60;;;;;;6304959;22;20014;-71
2021/10/11 16:50:50;;;;;;;14.82;9.43;;;25.00;52.90;;;;;;6333728;22;20007;-71
2021/10/11 16:53:17;;;;;;;21.02;13.63;;;25.00;53.20;;;;;;6305225;22;20441;-70
2021/10/11 16:55:46;;;;;;;18.25;7.25;;;25.00;53.30;;;;;;6333642;22;19998;-73
2021/10/11 16:58:13;;;;;;;13.20;5.53;;;24.90;53.40;;;;;;6306974;22;20003;-71
2021/10/11 17:00:41;;;;;;;7.82;3.72;;;24.90;53.50;;;;;;6332549;22;19999;-70
2021/10/11 17:03:08;;;;;;;10.02;3.33;;;24.80;53.50;;;;;;6333609;22;20010;-71
2021/10/11 17:05:34;;;;;;;22.88;16.48;;;24.80;53.00;;;;;;6331262;22;20030;-72
2021/10/11 17:08:01;;;;;;;27.88;18.50;;;24.80;53.00;;;;;;6332927;22;19995;-71
2021/10/11 17:10:30;;;;;;;26.90;16.88;;;24.70;53.00;;;;;;6332121;22;20039;-72
2021/10/11 17:12:57;;;;;;;15.38;8.23;;;24.70;53.40;;;;;;6305742;22;20002;-71
2021/10/11 17:15:24;;;;;;;8.00;4.03;;;24.70;53.70;;;;;;6332701;22;20073;-71
2021/10/11 17:17:51;;;;;;;13.05;3.90;;;24.70;54.00;;;;;;6332320;22;19991;-72
2021/10/11 17:20:18;;;;;;;13.55;3.22;;;24.60;54.40;;;;;;6333118;22;20006;-73
2021/10/11 17:22:46;;;;;;;12.07;3.17;;;24.60;54.20;;;;;;6331759;22;20102;-71
2021/10/11 17:25:14;;;;;;;18.13;12.23;;;24.60;54.10;;;;;;6333012;22;20010;-72
2021/10/11 17:27:42;;;;;;;28.33;18.65;;;24.50;54.00;;;;;;6331637;22;20019;-72
2021/10/11 17:30:11;;;;;;;16.00;10.40;;;24.40;53.90;;;;;;6332457;22;20007;-72
2021/10/11 17:32:38;;;;;;;10.30;4.53;;;24.40;54.00;;;;;;6332813;22;20006;-72
2021/10/11 17:35:06;;;;;;;9.57;3.20;;;24.30;53.90;;;;;;6331418;22;20003;-72
2021/10/11 17:37:33;;;;;;;7.68;3.20;;;24.30;53.90;;;;;;6333165;22;19999;-69
2021/10/11 17:39:59;;;;;;;10.05;3.30;;;24.30;53.50;;;;;;6304050;22;20509;-71
2021/10/11 17:42:26;;;;;;;14.35;3.80;;;24.20;53.60;;;;;;6334807;22;20326;-70
2021/10/11 17:44:52;;;;;;;12.95;5.22;;;24.20;53.40;;;;;;6333406;22;20072;-71
2021/10/11 17:47:19;;;;;;;30.10;18.10;;;24.20;53.30;;;;;;6335088;22;20006;-72
2021/10/11 17:49:45;;;;;;;16.63;11.35;;;24.10;53.30;;;;;;6334218;22;20014;-71
2021/10/11 17:52:16;;;;;;;12.77;4.00;;;24.20;53.30;;;;;;6333943;22;19999;-71
2021/10/11 17:54:44;;;;;;;13.13;4.13;;;24.10;53.30;;;;;;6335899;22;20003;-72
2021/10/11 17:57:11;;;;;;;10.40;3.95;;;24.10;53.80;;;;;;6306364;22;20045;-71
2021/10/11 17:59:38;;;;;;;9.80;4.13;;;24.00;54.10;;;;;;6335497;22;20001;-69
2021/10/11 18:02:04;;;;;;;9.13;3.80;;;24.00;54.60;;;;;;6333586;22;20002;-72
2021/10/11 18:04:32;;;;;;;13.68;4.75;;;24.00;54.90;;;;;;6307354;22;20408;-75
2021/10/11 18:06:59;;;;;;;14.85;3.92;;;24.00;55.50;;;;;;6334175;22;20024;-73
2021/10/11 18:09:26;;;;;;;12.43;4.65;;;24.00;56.30;;;;;;6332870;22;20003;-69
2021/10/11 18:11:53;;;;;;;18.98;4.68;;;23.90;56.70;;;;;;6334400;22;19995;-70
2021/10/11 18:14:20;;;;;;;11.05;5.05;;;23.80;57.70;;;;;;6333287;22;20007;-73
2021/10/11 18:16:48;;;;;;;15.43;5.60;;;23.70;58.40;;;;;;6335031;22;20326;-70
2021/10/11 18:19:14;;;;;;;15.75;5.75;;;23.60;59.30;;;;;;6333261;22;19999;-71
2021/10/11 18:21:41;;;;;;;13.48;5.55;;;23.50;60.10;;;;;;6334943;22;20009;-71
2021/10/11 18:24:07;;;;;;;14.60;4.22;;;23.50;60.90;;;;;;6333880;22;19999;-73
2021/10/11 18:26:35;;;;;;;16.73;6.25;;;23.50;61.50;;;;;;6333714;22;20426;-73
2021/10/11 18:29:04;;;;;;;20.52;12.00;;;23.40;62.50;;;;;;6334556;22;20052;-72
2021/10/11 18:31:31;;;;;;;16.50;6.95;;;23.40;63.00;;;;;;6333436;22;19999;-72
2021/10/11 18:33:57;;;;;;;12.13;5.13;;;23.40;64.00;;;;;;6334533;22;20006;-73
2021/10/11 18:36:24;;;;;;;15.95;4.95;;;23.30;64.70;;;;;;6305311;22;20386;-73
2021/10/11 18:38:50;;;;;;;16.35;4.28;;;23.30;65.30;;;;;;6335151;22;19998;-74
2021/10/11 18:41:17;;;;;;;13.13;5.22;;;23.20;65.50;;;;;;6333988;22;20013;-71
2021/10/11 18:43:43;;;;;;;11.18;5.00;;;23.20;66.00;;;;;;6334377;22;20060;-76
2021/10/11 18:46:11;;;;;;;22.10;14.40;;;23.20;66.30;;;;;;6333673;22;19995;-78
2021/10/11 18:48:39;;;;;;;18.20;5.95;;;23.20;67.00;;;;;;6332127;22;20090;-75
2021/10/11 18:51:05;;;;;;;19.17;5.18;;;23.10;67.40;;;;;;6332112;22;20001;-74
2021/10/11 18:53:39;;;;;;;18.55;5.90;;;23.20;67.90;;;;;;6302147;22;19999;-72
2021/10/11 18:56:06;;;;;;;17.83;4.15;;;23.10;68.30;;;;;;6330990;22;19999;-74
2021/10/11 18:58:33;;;;;;;11.50;4.53;;;23.10;68.90;;;;;;6329834;22;19999;-70
2021/10/11 19:01:01;;;;;;;24.92;10.90;;;23.00;69.60;;;;;;6331996;22;19999;-72
2021/10/11 19:03:29;;;;;;;29.52;19.92;;;23.00;70.10;;;;;;6331574;22;20418;-71
2021/10/11 19:05:57;;;;;;;22.98;8.95;;;23.00;70.70;;;;;;6331453;22;19998;-71
2021/10/11 19:08:24;;;;;;;13.73;5.45;;;23.00;71.20;;;;;;6331636;22;20048;-69
2021/10/11 19:10:50;;;;;;;17.70;3.97;;;23.00;71.70;;;;;;6330125;22;20003;-71
2021/10/11 19:13:18;;;;;;;15.90;4.70;;;22.90;71.90;;;;;;6331526;22;20108;-71
2021/10/11 19:15:46;;;;;;;20.15;4.88;;;22.90;72.10;;;;;;6328801;22;20422;-71
2021/10/11 19:18:13;;;;;;;11.95;4.25;;;22.90;72.50;;;;;;6332552;22;20070;-71
2021/10/11 19:20:43;;;;;;;15.50;4.97;;;22.80;72.80;;;;;;6330063;22;20002;-74
2021/10/11 19:23:10;;;;;;;13.85;4.95;;;22.80;73.10;;;;;;6329619;22;20002;-73
2021/10/11 19:25:36;;;;;;;17.13;5.63;;;22.80;73.50;;;;;;6330775;22;20013;-73
2021/10/11 19:28:08;;;;;;;16.27;5.40;;;22.80;73.70;;;;;;6329816;22;20014;-73
2021/10/11 19:30:36;;;;;;;24.58;7.55;;;22.80;74.20;;;;;;6332449;22;20011;-73
2021/10/11 19:33:05;;;;;;;14.70;4.82;;;22.70;74.30;;;;;;6330678;22;20031;-74
2021/10/11 19:35:32;;;;;;;17.38;4.28;;;22.70;74.60;;;;;;6332687;22;20009;-73
2021/10/11 19:37:58;;;;;;;16.88;4.88;;;22.60;74.80;;;;;;6303160;22;20424;-74
2021/10/11 19:40:26;;;;;;;20.98;6.63;;;22.60;75.20;;;;;;6331965;22;20009;-73
2021/10/11 19:42:52;;;;;;;20.52;5.07;;;22.60;75.40;;;;;;6302477;22;20007;-73
2021/10/11 19:45:21;;;;;;;16.25;4.93;;;22.60;75.70;;;;;;6330400;22;20009;-73
2021/10/11 19:47:48;;;;;;;15.52;4.88;;;22.50;76.10;;;;;;6332153;22;20011;-74
2021/10/11 19:50:15;;;;;;;17.33;5.15;;;22.50;76.30;;;;;;6330634;22;20489;-74
2021/10/11 19:52:43;;;;;;;18.40;5.38;;;22.40;76.50;;;;;;6331956;22;19999;-73
2021/10/11 19:55:11;;;;;;;17.40;5.65;;;22.40;77.00;;;;;;6330410;22;19999;-74
2021/10/11 19:57:40;;;;;;;18.42;6.45;;;22.30;77.20;;;;;;6331692;22;20044;-73
2021/10/11 20:00:08;;;;;;;32.35;6.70;;;22.30;77.30;;;;;;6330750;22;20006;-73
2021/10/11 20:02:39;;;;;;;19.27;5.85;;;22.30;77.80;;;;;;6329427;22;20003;-73
2021/10/11 20:05:07;;;;;;;12.77;5.00;;;22.20;78.10;;;;;;6332832;22;20053;-72
2021/10/11 20:07:34;;;;;;;37.55;21.85;;;22.20;78.20;;;;;;6331280;22;20006;-73
2021/10/11 20:10:01;;;;;;;39.20;23.10;;;22.20;78.40;;;;;;6333888;22;20015;-73
2021/10/11 20:12:27;;;;;;;16.88;5.85;;;22.20;78.20;;;;;;6331891;22;20434;-73
2021/10/11 20:14:54;;;;;;;18.70;6.07;;;22.20;78.40;;;;;;6333290;22;19999;-73
2021/10/11 20:17:22;;;;;;;11.35;4.78;;;22.20;78.50;;;;;;6333258;22;20009;-73
2021/10/11 20:19:49;;;;;;;21.23;5.47;;;22.20;78.60;;;;;;6332637;22;20002;-73
2021/10/11 20:22:16;;;;;;;19.60;4.72;;;22.10;78.60;;;;;;6333756;22;20034;-73
2021/10/11 20:24:44;;;;;;;15.18;5.35;;;22.10;78.90;;;;;;6333455;22;20022;-73
2021/10/11 20:27:11;;;;;;;19.02;5.57;;;22.10;79.10;;;;;;6333227;22;20007;-73
2021/10/11 20:29:41;;;;;;;24.80;5.70;;;22.10;79.30;;;;;;6332887;22;20056;-72
2021/10/11 20:32:13;;;;;;;26.65;5.90;;;22.10;79.30;;;;;;6334434;22;20082;-72
2021/10/11 20:34:40;;;;;;;17.48;6.55;;;22.10;79.40;;;;;;6332299;22;20326;-74
2021/10/11 20:37:08;;;;;;;15.95;6.50;;;22.00;79.60;;;;;;6305663;22;20309;-73
2021/10/11 20:39:36;;;;;;;20.83;4.90;;;22.00;79.70;;;;;;6332360;22;19991;-74
2021/10/11 20:42:03;;;;;;;14.88;4.55;;;22.00;79.80;;;;;;6332184;22;19998;-74
2021/10/11 20:44:29;;;;;;;23.27;7.65;;;22.00;80.00;;;;;;6305122;22;20003;-74
2021/10/11 20:46:56;;;;;;;18.42;6.72;;;22.00;80.10;;;;;;6330821;22;20002;-73
2021/10/11 20:49:27;;;;;;;18.92;5.95;;;22.00;80.30;;;;;;6333057;22;20008;-74
2021/10/11 20:51:54;;;;;;;23.85;7.53;;;22.00;80.80;;;;;;6331390;22;19991;-74
2021/10/11 20:54:20;;;;;;;22.95;7.35;;;21.90;80.90;;;;;;6333359;22;20002;-74
2021/10/11 20:56:47;;;;;;;17.98;5.32;;;21.90;81.20;;;;;;6303360;22;20006;-72
2021/10/11 20:59:14;;;;;;;22.30;6.68;;;22.00;81.30;;;;;;6304523;22;20024;-73
2021/10/11 21:01:43;;;;;;;23.58;7.63;;;22.00;81.50;;;;;;6303446;22;20361;-72
2021/10/11 21:04:14;;;;;;;18.80;5.95;;;22.00;81.60;;;;;;6332387;22;20006;-73
2021/10/11 21:06:40;;;;;;;18.30;6.38;;;22.00;81.80;;;;;;6304690;22;19998;-73
2021/10/11 21:09:25;;;;;;;13.30;5.03;;;22.00;82.00;;;;;;6332317;22;20010;-73
2021/10/11 21:12:21;;;;;;;15.93;5.93;;;22.00;82.00;;;;;;6333311;22;20087;-73
2021/10/11 21:14:48;;;;;;;17.58;5.35;;;22.00;82.10;;;;;;6331921;22;20371;-73
2021/10/11 21:17:15;;;;;;;22.42;6.13;;;22.00;82.00;;;;;;6333048;22;19998;-73
2021/10/11 21:19:42;;;;;;;18.08;5.72;;;21.90;82.00;;;;;;6331085;22;20319;-73
2021/10/11 21:22:09;;;;;;;21.55;6.90;;;21.90;82.00;;;;;;6305131;22;20090;-72
2021/10/11 21:24:35;;;;;;;20.08;7.57;;;21.90;82.00;;;;;;6334116;22;20048;-73
2021/10/11 21:27:03;;;;;;;18.05;6.35;;;21.80;82.00;;;;;;6333642;22;20011;-73
2021/10/11 21:29:30;;;;;;;12.10;4.20;;;21.80;82.10;;;;;;6334124;22;20007;-73
2021/10/11 21:31:56;;;;;;;18.63;5.72;;;21.80;82.30;;;;;;6332953;22;20005;-72
2021/10/11 21:34:23;;;;;;;20.65;7.28;;;21.80;82.30;;;;;;6332282;22;20329;-73
2021/10/11 21:36:53;;;;;;;20.33;6.28;;;21.80;82.40;;;;;;6329438;22;20006;-72
2021/10/11 21:39:19;;;;;;;17.52;6.88;;;21.80;82.40;;;;;;6303412;22;20530;-73
2021/10/11 21:41:46;;;;;;;18.85;6.68;;;21.70;82.50;;;;;;6330452;22;19995;-72
2021/10/11 21:44:12;;;;;;;20.05;5.05;;;21.80;82.60;;;;;;6330671;22;20492;-72
2021/10/11 21:46:39;;;;;;;17.58;4.97;;;21.70;82.50;;;;;;6331338;22;19998;-72
2021/10/11 21:49:06;;;;;;;15.93;5.32;;;21.70;82.70;;;;;;6329543;22;20087;-72
2021/10/11 21:51:32;;;;;;;18.15;5.38;;;21.70;82.90;;;;;;6331119;22;19999;-73
2021/10/11 21:53:59;;;;;;;20.35;6.03;;;21.60;83.00;;;;;;6330766;22;20032;-73
2021/10/11 21:56:25;;;;;;;18.10;5.75;;;21.60;83.20;;;;;;6330820;22;19999;-72
2021/10/11 21:58:52;;;;;;;24.27;7.38;;;21.60;83.40;;;;;;6330048;22;20371;-73
2021/10/11 22:01:18;;;;;;;13.68;5.80;;;21.60;83.60;;;;;;6331166;22;20788;-73
2021/10/11 22:03:45;;;;;;;17.85;6.30;;;21.50;83.50;;;;;;6331014;22;20010;-72
2021/10/11 22:06:11;;;;;;;22.58;7.55;;;21.50;83.70;;;;;;6333439;22;20001;-72
2021/10/11 22:08:38;;;;;;;18.30;6.57;;;21.50;83.60;;;;;;6335038;22;20029;-72
2021/10/11 22:11:04;;;;;;;22.90;7.82;;;21.50;83.60;;;;;;6333702;22;20051;-72
2021/10/11 22:13:31;;;;;;;20.35;6.05;;;21.50;83.70;;;;;;6333599;22;20407;-72
2021/10/11 22:15:58;;;;;;;16.67;5.78;;;21.50;83.90;;;;;;6332353;22;20325;-72
2021/10/11 22:18:25;;;;;;;20.58;6.18;;;21.50;83.90;;;;;;6333909;22;19999;-72
2021/10/11 22:20:51;;;;;;;21.42;5.95;;;21.40;83.60;;;;;;6333213;22;20003;-72
2021/10/11 22:23:18;;;;;;;15.65;5.55;;;21.40;83.80;;;;;;6305450;22;20060;-72
2021/10/11 22:25:44;;;;;;;16.50;6.25;;;21.40;83.90;;;;;;6333459;22;20456;-72
2021/10/11 22:28:12;;;;;;;17.20;6.20;;;21.40;83.60;;;;;;6332137;22;20014;-72
2021/10/11 22:30:38;;;;;;;20.33;4.80;;;21.40;83.60;;;;;;6335349;22;20011;-72
2021/10/11 22:33:05;;;;;;;14.48;4.00;;;21.40;83.60;;;;;;6333204;22;20028;-72
2021/10/11 22:35:31;;;;;;;17.17;4.25;;;21.40;83.80;;;;;;6334447;22;20031;-73
2021/10/11 22:37:59;;;;;;;16.88;4.15;;;21.40;83.70;;;;;;6305355;22;20003;-72
2021/10/11 22:40:26;;;;;;;10.48;4.53;;;21.40;84.10;;;;;;6306734;22;20133;-72
2021/10/11 22:42:52;;;;;;;23.48;4.70;;;21.40;83.60;;;;;;6334700;22;20002;-72
2021/10/11 22:45:19;;;;;;;17.13;4.90;;;21.30;83.50;;;;;;6334338;22;20418;-73
2021/10/11 22:47:46;;;;;;;18.95;5.82;;;21.30;83.40;;;;;;6335049;22;20001;-72
2021/10/11 22:50:14;;;;;;;14.32;4.75;;;21.30;83.60;;;;;;6333690;22;20076;-72
2021/10/11 22:52:47;;;;;;;17.52;5.40;;;21.30;83.60;;;;;;6334776;22;19999;-72
2021/10/11 22:55:15;;;;;;;20.27;5.10;;;21.30;83.50;;;;;;6333127;22;20021;-72
2021/10/11 22:57:42;;;;;;;18.02;5.47;;;21.30;83.70;;;;;;6333551;22;20011;-73
2021/10/11 23:00:12;;;;;;;13.40;4.97;;;21.30;83.80;;;;;;6333860;22;20017;-73
2021/10/11 23:02:40;;;;;;;20.63;4.60;;;21.20;83.80;;;;;;6306792;22;20272;-72
2021/10/11 23:05:08;;;;;;;14.00;4.53;;;21.20;83.80;;;;;;6309279;22;20002;-73
2021/10/11 23:07:36;;;;;;;12.57;4.00;;;21.20;83.90;;;;;;6335108;22;20321;-73
2021/10/11 23:10:04;;;;;;;22.80;5.75;;;21.20;83.80;;;;;;6336446;22;20376;-72
2021/10/11 23:12:33;;;;;;;19.70;4.72;;;21.20;83.70;;;;;;6334926;22;20003;-72
2021/10/11 23:15:00;;;;;;;19.85;6.35;;;21.20;83.80;;;;;;6336898;22;19995;-72
2021/10/11 23:17:26;;;;;;;17.50;4.45;;;21.20;83.80;;;;;;6336245;22;19998;-73
2021/10/11 23:19:53;;;;;;;16.75;4.43;;;21.10;83.80;;;;;;6308174;22;20007;-73
2021/10/11 23:22:20;;;;;;;15.50;4.13;;;21.10;83.40;;;;;;6336183;22;20087;-72
2021/10/11 23:24:47;;;;;;;18.13;5.30;;;21.10;83.70;;;;;;6335155;22;19999;-72
2021/10/11 23:27:14;;;;;;;16.67;3.50;;;21.10;83.90;;;;;;6336440;22;20049;-73
2021/10/11 23:29:41;;;;;;;17.15;3.90;;;21.10;83.60;;;;;;6334685;22;20093;-72
2021/10/11 23:32:07;;;;;;;15.45;4.57;;;21.10;83.50;;;;;;6335954;22;20464;-72
2021/10/11 23:34:36;;;;;;;15.88;5.22;;;21.00;83.40;;;;;;6335446;22;20044;-72
2021/10/11 23:37:03;;;;;;;13.00;4.00;;;21.10;83.40;;;;;;6335705;22;20021;-72
2021/10/11 23:39:30;;;;;;;20.35;4.53;;;21.00;83.40;;;;;;6336312;22;19998;-72
2021/10/11 23:41:56;;;;;;;14.32;3.60;;;21.00;83.20;;;;;;6334619;22;19999;-72
2021/10/11 23:44:23;;;;;;;19.67;5.55;;;21.00;83.10;;;;;;6335875;22;20002;-72
2021/10/11 23:46:49;;;;;;;16.15;5.05;;;21.00;83.10;;;;;;6334498;22;19995;-72
2021/10/11 23:49:16;;;;;;;20.10;4.30;;;21.00;83.00;;;;;;6335184;22;20006;-72
2021/10/11 23:51:42;;;;;;;14.02;3.30;;;21.00;83.20;;;;;;6334910;22;20004;-72
2021/10/11 23:54:18;;;;;;;11.90;3.60;;;20.90;83.20;;;;;;6335625;22;20059;-73
2021/10/11 23:56:47;;;;;;;10.18;3.67;;;21.00;83.30;;;;;;6336063;22;20363;-73
2021/10/11 23:59:13;;;;;;;23.25;4.95;;;20.90;83.00;;;;;;6335619;22;20006;-73
